SBOSBO POS / TTPP
Speedbird OnlineSpeedbird Online POS / TTPP

Piarco International Airport
03:02 24.6°C

Location Port-of-spain, Trinidad and Tobago
Latitude: 10.595399856567383
Longitude: -61.33720016479492
Web Wikipedia
Altitude 18 Meter / 58 Feet
Distance 7,133 KM / 4,432 Miles
from London.
Time Zone UTC -4 hours (America/Port_of_Spain)
Codes IATA: POS
ICAO: TTPP
Currency £1 equals TTD 7.67
Runways
RunwayLength (m)Surface
103200Asphalt
283200Asphalt
Radio
TypeDescriptionFrequency
ACCACC123.7
APPAPP119
ATISATIS126.7
GNDGND121.9
MISCAPRON121.75
RDORDO552.6
TWRTWR118.1
Live ATC
METAR TTPP 060300Z 09003KT 6000 -RA VCSH SCT010CB SCT035 24/23 Q1012 RERA NOSIG RMK CB N NE E VCSH ALQDS
TAF TAF TTPP 052200Z 0600/0624 00000KT 9999 FEW016 SCT036 TEMPO 0600/0607 10015G25KT 2000 TSRA SCT010CB BKN014 PROB30 TEMPO 0608/0611 5000 BR FEW005 FM061400 11012KT 9999 SCT018 TEMPO 0615/0620 10015G25KT 2000 TSRA SCT010CB BKN015
Weather As Of 06 Oct 2022 02:54
Description Overcast clouds
Wind 13 km/h from North-East (36°)
Cloud Cover 100%
Precipitation Rain: none, Snow: none
Sunrise 05:53
Sunset 17:52
Lounges VIP Flyers Club, Main Terminal
Rotations During the last 90 days there were
43 flights from UVF
43 flights to UVF


© 2017-2022 Speedbird Online